P/v Golden Gate — WDE5665 — position and weather

sailwx.info

Track history (hours):
 
Tides and Currents Weather Stations Pressure Air Temp Water Temp Dewpoint Dewpoint Depression Visibility Wind Speed Wind Dir Waves Ship Positions

P/v Golden Gate

Owner: San Francisco Bar Pilots Benevolent and Protective, San Francisco, CA. More information available from US FCC via Universal Licensing System and Coast Guard Vessel Documentation Center.

Last reported at 2016-Sep-30 02:33 UTC. Time now 2016-Sep-30 03:16 UTC.
Position N 37°48' W 122°24'.

Length 23 m; draft 2 m.

Type: Pilot. MMSI: 367370010.

Date/timePositionNaut miles runAvg speedWind from/ knotsBaromVisibWave heightAir tempDewpointWater temp
2016-Sep-30 02:33N 37°48' W 122°24'0 0.0
2016-Sep-29 23:33N 37°48' W 122°24'4 1.8
2016-Sep-29 21:33N 37°45' W 122°21'1 0.7
2016-Sep-29 20:33N 37°45' W 122°20'4 4.4
2016-Sep-29 19:34N 37°48' W 122°24'0 0.1
2016-Sep-29 16:33N 37°48' W 122°24'2 2.3
2016-Sep-29 15:34N 37°48' W 122°21'4 3.5
2016-Sep-29 14:33N 37°49' W 122°25'1 0.6
2016-Sep-29 13:34N 37°49' W 122°24'1 0.2
2016-Sep-29 08:33N 37°48' W 122°24'0 0.0
2016-Sep-29 07:34N 37°48' W 122°24'0 0.0
2016-Sep-29 00:33N 37°48' W 122°24'1 0.4
2016-Sep-28 21:33N 37°49' W 122°25'1 0.6
2016-Sep-28 19:33N 37°48' W 122°24'0 0.2
2016-Sep-28 16:33N 37°48' W 122°23'0 0.5
2016-Sep-28 15:34N 37°48' W 122°24'0 0.0
2016-Sep-28 12:33N 37°48' W 122°24'5 1.2
2016-Sep-28 08:34N 37°44' W 122°20'11 2.2
2016-Sep-28 03:33N 37°47' W 122°33'7 7.3
2016-Sep-28 02:33N 37°48' W 122°24'2 1.8
2016-Sep-28 01:34N 37°47' W 122°22'2 0.9
2016-Sep-27 23:33N 37°48' W 122°24'2 0.5
2016-Sep-27 19:34N 37°48' W 122°21'2 0.4
2016-Sep-27 14:33N 37°48' W 122°24'4 3.6
2016-Sep-27 13:33N 37°48' W 122°19'4 1.2
2016-Sep-27 10:33N 37°48' W 122°24'4 0.4
2016-Sep-27 00:33N 37°45' W 122°21'4 0.9
2016-Sep-26 20:33N 37°48' W 122°24'8 7.8
2016-Sep-26 19:28N 37°47' W 122°34'13 3.4
2016-Sep-26 15:34N 37°48' W 122°18'5 2.4
2016-Sep-26 13:33N 37°48' W 122°24'0 0.0
2016-Sep-26 11:33N 37°48' W 122°24'0 0.0
2016-Sep-26 08:34N 37°48' W 122°24'3 0.4
2016-Sep-26 02:33N 37°48' W 122°20'1 1.5
2016-Sep-26 01:33N 37°48' W 122°19'4 4.1
2016-Sep-26 00:34N 37°48' W 122°24'3 1.1
2016-Sep-25 21:33N 37°48' W 122°20'3 0.8
2016-Sep-25 17:33N 37°48' W 122°24'0 0.0
2016-Sep-25 16:34N 37°48' W 122°24'1 0.6
2016-Sep-25 15:33N 37°48' W 122°23'3 2.8
2016-Sep-25 14:34N 37°48' W 122°20'3 1.7
2016-Sep-25 12:33N 37°48' W 122°24'0 0.0
2016-Sep-25 11:33N 37°48' W 122°24'0 0.0
2016-Sep-25 10:33N 37°48' W 122°24'0 0.0
2016-Sep-25 09:33N 37°48' W 122°24'0 0.0
2016-Sep-25 07:34N 37°48' W 122°24'0 0.0
2016-Sep-25 04:33N 37°48' W 122°24'5 1.2
2016-Sep-25 00:34N 37°44' W 122°20'6 3.0
2016-Sep-24 22:33N 37°49' W 122°25'1 1.4
2016-Sep-24 21:33N 37°48' W 122°24'0 0.0
2016-Sep-24 19:33N 37°48' W 122°24'0 0.0
2016-Sep-24 18:33N 37°48' W 122°24'0 0.0
2016-Sep-24 17:33N 37°48' W 122°24'0 0.0
2016-Sep-24 16:33N 37°48' W 122°24'0 0.0
2016-Sep-24 14:33N 37°48' W 122°24'0 0.0
2016-Sep-24 12:33N 37°48' W 122°24'0 0.1
2016-Sep-24 10:34N 37°48' W 122°24'7 6.6
2016-Sep-24 09:31N 37°48' W 122°32'7 1.2
2016-Sep-24 03:34N 37°48' W 122°24'4 3.6
2016-Sep-24 02:33N 37°50' W 122°28'4 3.6
2016-Sep-24 01:33N 37°48' W 122°24'0 0.0
2016-Sep-24 00:33N 37°48' W 122°24'0 0.0
2016-Sep-23 19:34N 37°48' W 122°24'1 0.6
2016-Sep-23 17:33N 37°49' W 122°25'5 4.7
2016-Sep-23 16:33N 37°45' W 122°21'1 0.6
2016-Sep-23 15:33N 37°46' W 122°21'3 1.7
2016-Sep-23 13:34N 37°48' W 122°24'0 0.0
2016-Sep-23 09:33N 37°48' W 122°24'0 0.0
2016-Sep-23 06:33N 37°48' W 122°24'3 1.4
2016-Sep-23 04:34N 37°48' W 122°20'11 9.9
2016-Sep-23 03:28N 37°47' W 122°34'1112.1
2016-Sep-23 02:33N 37°46' W 122°20'4 3.8
2016-Sep-23 01:33N 37°48' W 122°24'0 0.0
2016-Sep-23 00:34N 37°48' W 122°24'0 0.0
2016-Sep-22 23:33N 37°48' W 122°24'0 0.0
2016-Sep-22 20:33N 37°48' W 122°24'0 0.0
2016-Sep-22 12:33N 37°48' W 122°24'0 0.0
2016-Sep-22 04:33N 37°48' W 122°24'0 0.0
2016-Sep-22 03:33N 37°48' W 122°24'0 0.0
2016-Sep-22 00:33N 37°48' W 122°24'4 3.6
2016-Sep-21 23:33N 37°48' W 122°19'3 2.8
2016-Sep-21 22:34N 37°46' W 122°22'4 1.2
2016-Sep-21 19:33N 37°49' W 122°25'1 0.4
2016-Sep-21 16:33N 37°48' W 122°24'7 1.0
2016-Sep-21 09:26N 37°47' W 122°33'7 7.9
2016-Sep-21 08:33N 37°48' W 122°24'0 0.0
2016-Sep-21 05:33N 37°48' W 122°24'0 0.2
2016-Sep-21 03:33N 37°48' W 122°24'4 4.1
2016-Sep-21 02:33N 37°48' W 122°19'4 0.4
2016-Sep-20 17:33N 37°48' W 122°24'2 0.8
2016-Sep-20 14:34N 37°47' W 122°21'2 2.3
2016-Sep-20 13:34N 37°48' W 122°24'0 0.0
2016-Sep-20 10:33N 37°48' W 122°24'0 0.0
2016-Sep-20 08:33N 37°48' W 122°24'6 6.0
2016-Sep-20 07:28N 37°48' W 122°32'6 7.1
2016-Sep-20 06:33N 37°48' W 122°24'  
Track history (hours):
 
Tides and Currents Weather Stations Pressure Air Temp Water Temp Dewpoint Dewpoint Depression Visibility Wind Speed Wind Dir Waves Ship Positions

P/v Golden Gate

Owner: San Francisco Bar Pilots Benevolent and Protective, San Francisco, CA. More information available from US FCC via Universal Licensing System and Coast Guard Vessel Documentation Center.

Last reported at 2016-Sep-30 02:33 UTC. Time now 2016-Sep-30 03:16 UTC.
Position N 37°48' W 122°24'.

Length 23 m; draft 2 m.

Type: Pilot. MMSI: 367370010.

Date/timePositionNaut miles runAvg speedWind from/ knotsBaromVisibWave heightAir tempDewpointWater temp
2016-Sep-30 02:33N 37°48' W 122°24'0 0.0
2016-Sep-29 23:33N 37°48' W 122°24'4 1.8
2016-Sep-29 21:33N 37°45' W 122°21'1 0.7
2016-Sep-29 20:33N 37°45' W 122°20'4 4.4
2016-Sep-29 19:34N 37°48' W 122°24'0 0.1
2016-Sep-29 16:33N 37°48' W 122°24'2 2.3
2016-Sep-29 15:34N 37°48' W 122°21'4 3.5
2016-Sep-29 14:33N 37°49' W 122°25'1 0.6
2016-Sep-29 13:34N 37°49' W 122°24'1 0.2
2016-Sep-29 08:33N 37°48' W 122°24'0 0.0
2016-Sep-29 07:34N 37°48' W 122°24'0 0.0
2016-Sep-29 00:33N 37°48' W 122°24'1 0.4
2016-Sep-28 21:33N 37°49' W 122°25'1 0.6
2016-Sep-28 19:33N 37°48' W 122°24'0 0.2
2016-Sep-28 16:33N 37°48' W 122°23'0 0.5
2016-Sep-28 15:34N 37°48' W 122°24'0 0.0
2016-Sep-28 12:33N 37°48' W 122°24'5 1.2
2016-Sep-28 08:34N 37°44' W 122°20'11 2.2
2016-Sep-28 03:33N 37°47' W 122°33'7 7.3
2016-Sep-28 02:33N 37°48' W 122°24'2 1.8
2016-Sep-28 01:34N 37°47' W 122°22'2 0.9
2016-Sep-27 23:33N 37°48' W 122°24'2 0.5
2016-Sep-27 19:34N 37°48' W 122°21'2 0.4
2016-Sep-27 14:33N 37°48' W 122°24'4 3.6
2016-Sep-27 13:33N 37°48' W 122°19'4 1.2
2016-Sep-27 10:33N 37°48' W 122°24'4 0.4
2016-Sep-27 00:33N 37°45' W 122°21'4 0.9
2016-Sep-26 20:33N 37°48' W 122°24'8 7.8
2016-Sep-26 19:28N 37°47' W 122°34'13 3.4
2016-Sep-26 15:34N 37°48' W 122°18'5 2.4
2016-Sep-26 13:33N 37°48' W 122°24'0 0.0
2016-Sep-26 11:33N 37°48' W 122°24'0 0.0
2016-Sep-26 08:34N 37°48' W 122°24'3 0.4
2016-Sep-26 02:33N 37°48' W 122°20'1 1.5
2016-Sep-26 01:33N 37°48' W 122°19'4 4.1
2016-Sep-26 00:34N 37°48' W 122°24'3 1.1
2016-Sep-25 21:33N 37°48' W 122°20'3 0.8
2016-Sep-25 17:33N 37°48' W 122°24'0 0.0
2016-Sep-25 16:34N 37°48' W 122°24'1 0.6
2016-Sep-25 15:33N 37°48' W 122°23'3 2.8
2016-Sep-25 14:34N 37°48' W 122°20'3 1.7
2016-Sep-25 12:33N 37°48' W 122°24'0 0.0
2016-Sep-25 11:33N 37°48' W 122°24'0 0.0
2016-Sep-25 10:33N 37°48' W 122°24'0 0.0
2016-Sep-25 09:33N 37°48' W 122°24'0 0.0
2016-Sep-25 07:34N 37°48' W 122°24'0 0.0
2016-Sep-25 04:33N 37°48' W 122°24'5 1.2
2016-Sep-25 00:34N 37°44' W 122°20'6 3.0
2016-Sep-24 22:33N 37°49' W 122°25'1 1.4
2016-Sep-24 21:33N 37°48' W 122°24'0 0.0
2016-Sep-24 19:33N 37°48' W 122°24'0 0.0
2016-Sep-24 18:33N 37°48' W 122°24'0 0.0
2016-Sep-24 17:33N 37°48' W 122°24'0 0.0
2016-Sep-24 16:33N 37°48' W 122°24'0 0.0
2016-Sep-24 14:33N 37°48' W 122°24'0 0.0
2016-Sep-24 12:33N 37°48' W 122°24'0 0.1
2016-Sep-24 10:34N 37°48' W 122°24'7 6.6
2016-Sep-24 09:31N 37°48' W 122°32'7 1.2
2016-Sep-24 03:34N 37°48' W 122°24'4 3.6
2016-Sep-24 02:33N 37°50' W 122°28'4 3.6
2016-Sep-24 01:33N 37°48' W 122°24'0 0.0
2016-Sep-24 00:33N 37°48' W 122°24'0 0.0
2016-Sep-23 19:34N 37°48' W 122°24'1 0.6
2016-Sep-23 17:33N 37°49' W 122°25'5 4.7
2016-Sep-23 16:33N 37°45' W 122°21'1 0.6
2016-Sep-23 15:33N 37°46' W 122°21'3 1.7
2016-Sep-23 13:34N 37°48' W 122°24'0 0.0
2016-Sep-23 09:33N 37°48' W 122°24'0 0.0
2016-Sep-23 06:33N 37°48' W 122°24'3 1.4
2016-Sep-23 04:34N 37°48' W 122°20'11 9.9
2016-Sep-23 03:28N 37°47' W 122°34'1112.1
2016-Sep-23 02:33N 37°46' W 122°20'4 3.8
2016-Sep-23 01:33N 37°48' W 122°24'0 0.0
2016-Sep-23 00:34N 37°48' W 122°24'0 0.0
2016-Sep-22 23:33N 37°48' W 122°24'0 0.0
2016-Sep-22 20:33N 37°48' W 122°24'0 0.0
2016-Sep-22 12:33N 37°48' W 122°24'0 0.0
2016-Sep-22 04:33N 37°48' W 122°24'0 0.0
2016-Sep-22 03:33N 37°48' W 122°24'0 0.0
2016-Sep-22 00:33N 37°48' W 122°24'4 3.6
2016-Sep-21 23:33N 37°48' W 122°19'3 2.8
2016-Sep-21 22:34N 37°46' W 122°22'4 1.2
2016-Sep-21 19:33N 37°49' W 122°25'1 0.4
2016-Sep-21 16:33N 37°48' W 122°24'7 1.0
2016-Sep-21 09:26N 37°47' W 122°33'7 7.9
2016-Sep-21 08:33N 37°48' W 122°24'0 0.0
2016-Sep-21 05:33N 37°48' W 122°24'0 0.2
2016-Sep-21 03:33N 37°48' W 122°24'4 4.1
2016-Sep-21 02:33N 37°48' W 122°19'4 0.4
2016-Sep-20 17:33N 37°48' W 122°24'2 0.8
2016-Sep-20 14:34N 37°47' W 122°21'2 2.3
2016-Sep-20 13:34N 37°48' W 122°24'0 0.0
2016-Sep-20 10:33N 37°48' W 122°24'0 0.0
2016-Sep-20 08:33N 37°48' W 122°24'6 6.0
2016-Sep-20 07:28N 37°48' W 122°32'6 7.1
2016-Sep-20 06:33N 37°48' W 122°24'  

Dump ship's entire track history